Impacts METAR Board
IDs:

KUVA - Uvalde/Garner Fld, TX, US

Updated at: 0500 UTC 19 Aug 2019
Potential Impact None Slight Moderate High
Time 18/17Z 18/18Z 18/19Z 18/20Z 18/21Z 18/22Z 18/23Z 19/00Z 19/01Z 19/02Z 19/03Z 19/04Z 19/05Z
Temp86 91 95 97 100 101 101 101 98 93 91 89 86
Dewpt72 72 71 68 66 66 64 64 64 65 69 73 71
Altim29.93 29.91 29.89 29.86 29.84 29.82 29.80 29.80 29.81 29.82 29.85 29.89 29.91
VIS10 10 10 10 10 10 10 10 10 10 10 10 10
CIG-- -- -- -- -- -- -- -- -- -- -- -- --
CoverSCTCLRCLRCLRCLRCLRCLRCLRCLRCLRCLRCLRCLR
FltCatVFRVFRVFRVFRVFRVFRVFRVFRVFRVFRVFRVFRVFR
WX--------------------------
WDir120150200200160190160100110100120110120
WSpd8 9 9 5 4 6 7 6 5 5 11 11 13
WGst-- -- -- 16 -- -- -- -- -- -- 15 18 19
Raw hourly METARs
KUVA 181655Z AUTO 12008KT 10SM SCT026 30/22 A2993 RMK AO2 T03000223
KUVA 181755Z AUTO 15009KT 10SM CLR 33/22 A2991 RMK AO2 T03260220 10326 20232
KUVA 181855Z AUTO 20009KT 160V220 10SM CLR 35/21 A2989 RMK AO2 T03500214
KUVA 181955Z AUTO 20005G16KT 10SM CLR 36/20 A2986 RMK AO2 T03610201
KUVA 182055Z AUTO 16004KT 10SM CLR 38/19 A2984 RMK AO2 T03770191
KUVA 182155Z AUTO 19006KT 10SM CLR 38/19 A2982 RMK AO2 T03820190
KUVA 182255Z AUTO 16007KT 10SM CLR 39/18 A2980 RMK AO2 T03850176
KUVA 182355Z AUTO 10006KT 10SM CLR 38/18 A2980 RMK AO2 T03810178 10388 20325
KUVA 190055Z AUTO 11005KT 10SM CLR 37/18 A2981 RMK AO2 T03650175
KUVA 190155Z AUTO 10005KT 10SM CLR 34/18 A2982 RMK AO2 T03400181
KUVA 190255Z AUTO 12011G15KT 10SM CLR 33/20 A2985 RMK AO2 T03290203
KUVA 190355Z AUTO 11011G18KT 10SM CLR 32/23 A2989 RMK AO2 T03150225
KUVA 190455Z AUTO 12013G19KT 10SM CLR 30/22 A2991 RMK AO2 T03000218



Page loaded:  05:47 UTC  |   10:47 PM Pacific  |   11:47 PM Mountain  |   12:47 AM Central  |   01:47 AM Eastern

 

ADVISORIES

FORECASTS

FORECASTS

OBSERVATIONS

USER TOOLS

ABOUT US